METAR AND TAF INFORMATION
METAR FOR KGNT
ADDS - METARS form results

(0833 UTC 28 October 2021)
Data provider http://aviationweather.gov/metar/data/
 
METAR text: KGNT 280815Z AUTO 34008KT 10SM CLR M01/M07 A3030 RMK AO2 T10121073
Conditions at: KGNT (GRANTS , NM, US) observed 0815 UTC 28 October 2021
Temperature: -1.2°C (30°F)
Dewpoint: -7.3°C (19°F) [RH = 63%]
Pressure (altimeter): 30.30 inches Hg (1026.2 mb)
Winds: from the NNW (340 degrees) at 9 MPH (8 knots; 4.1 m/s)
Visibility: 10 or more miles (16+ km)
Ceiling: at least 12,000 feet AGL
Clouds: sky clear below 12,000 feet AGL
Weather: automated observation with no human augmentation;
there may or may not be significant weather present at this time

METAR text: KGNT 280755Z AUTO 34007KT 10SM CLR M02/M08 A3030 RMK AO2 T10191078
Conditions at: KGNT (GRANTS , NM, US) observed 0755 UTC 28 October 2021
Temperature: -1.9°C (29°F)
Dewpoint: -7.8°C (18°F) [RH = 64%]
Pressure (altimeter): 30.30 inches Hg (1026.2 mb)
Winds: from the NNW (340 degrees) at 8 MPH (7 knots; 3.6 m/s)
Visibility: 10 or more miles (16+ km)
Ceiling: at least 12,000 feet AGL
Clouds: sky clear below 12,000 feet AGL
Weather: automated observation with no human augmentation;
there may or may not be significant weather present at this time

METAR text: KGNT 280735Z AUTO 33006KT 10SM CLR M01/M08 A3030 RMK AO2 T10101076
Conditions at: KGNT (GRANTS , NM, US) observed 0735 UTC 28 October 2021
Temperature: -1.0°C (30°F)
Dewpoint: -7.6°C (18°F) [RH = 61%]
Pressure (altimeter): 30.30 inches Hg (1026.2 mb)
Winds: from the NNW (330 degrees) at 7 MPH (6 knots; 3.1 m/s)
Visibility: 10 or more miles (16+ km)
Ceiling: at least 12,000 feet AGL
Clouds: sky clear below 12,000 feet AGL
Weather: automated observation with no human augmentation;
there may or may not be significant weather present at this time

 AIRPORT MAP

 RUNWAY INFORMATION
Runway 08 Runway length 2350 ft Runway width 40 ft
Runway elevation 6520 ft Runway displaced threshold 0 ft Runway heading 92
Runway 26 Runway length 2350 ft Runway width 40 ft
Runway elevation 6510 ft Runway displaced threshold 0 ft Runway heading 272
Runway 13 Runway length 7172 ft Runway width 75 ft
Runway elevation 6537 ft Runway displaced threshold 0 ft Runway heading 145
Runway 31 Runway length 7172 ft Runway width 75 ft
Runway elevation 6515 ft Runway displaced threshold 0 ft Runway heading 325

 AIRPORT FREQUENCIES
Type CNTR Name ALBUQUERQU Frequency 124.325 MHZ
Type UNIC Name CTAF/UNICO Frequency 122.8 MHZ

 AIRPORT NEAR NAVIGATION AIDS

-